Time;durP1;ratioP1;P1;durP2;ratioP2;P2;SDS_P1;SDS_P2;PMS_P1;PMS_P2;Temp;Humidity;BMP_temperature;BMP_pressure;BME280_temperature;BME280_humidity;BME280_pressure;Samples;Min_cycle;Max_cycle;Signal;HPM_P1;HPM_P2
2023/03/19 00:02:06;;;;;;;0.10;0.10;;;;;;;13.08;73.89;101103.66;5141035;27;20093;-87
2023/03/19 00:04:32;;;;;;;0.10;0.10;;;;;;;13.06;74.02;101110.81;5142437;27;20049;-87
2023/03/19 00:06:59;;;;;;;0.10;0.10;;;;;;;13.07;73.94;101109.88;5137236;28;20042;-87
2023/03/19 00:09:26;;;;;;;0.10;0.10;;;;;;;13.07;73.90;101111.66;5126900;28;20035;-87
2023/03/19 00:11:52;;;;;;;0.10;0.10;;;;;;;13.08;74.21;101118.72;5132847;27;20022;-86
2023/03/19 00:14:18;;;;;;;0.10;0.10;;;;;;;13.03;74.29;101120.63;5119670;28;20031;-88
2023/03/19 00:16:44;;;;;;;0.20;0.20;;;;;;;13.07;73.79;101117.88;5117437;28;20039;-87
2023/03/19 00:19:11;;;;;;;0.17;0.17;;;;;;;13.03;74.20;101115.31;5108543;28;20027;-88
2023/03/19 00:21:37;;;;;;;0.20;0.20;;;;;;;13.02;73.69;101114.47;5117765;28;20030;-88
2023/03/19 00:24:03;;;;;;;0.20;0.20;;;;;;;13.03;73.58;101125.97;5111819;28;20651;-87
2023/03/19 00:26:32;;;;;;;0.10;0.10;;;;;;;13.02;73.81;101127.75;5105150;28;20420;-87
2023/03/19 00:28:59;;;;;;;0.10;0.10;;;;;;;13.01;73.80;101133.09;5108679;28;20027;-87
2023/03/19 00:31:27;;;;;;;0.10;0.10;;;;;;;13.00;74.00;101134.03;5117093;28;20024;-87
2023/03/19 00:33:56;;;;;;;0.15;0.15;;;;;;;12.98;73.96;101127.88;5123025;28;20058;-87
2023/03/19 00:36:24;;;;;;;0.80;0.63;;;;;;;12.99;73.83;101134.94;5106838;28;20441;-87
2023/03/19 00:38:50;;;;;;;0.10;0.10;;;;;;;12.97;73.77;101126.97;5104867;28;20040;-87
2023/03/19 00:41:17;;;;;;;0.10;0.10;;;;;;;12.99;74.42;101132.28;5113583;28;20034;-87
2023/03/19 00:43:44;;;;;;;0.10;0.10;;;;;;;12.94;73.96;101138.56;5126477;28;20043;-86
2023/03/19 00:46:10;;;;;;;0.10;0.10;;;;;;;12.95;73.41;101137.66;5131569;27;20024;-87
2023/03/19 00:48:36;;;;;;;0.20;0.20;;;;;;;12.93;73.47;101141.28;5109354;28;20111;-87
2023/03/19 00:51:05;;;;;;;0.10;0.10;;;;;;;12.93;73.84;101136.84;5111166;28;20028;-86
2023/03/19 00:53:35;;;;;;;0.03;0.03;;;;;;;12.92;74.11;101139.53;5106698;28;20039;-87
2023/03/19 00:56:01;;;;;;;0.10;0.10;;;;;;;12.88;74.13;101135.19;5115051;28;20106;-89
2023/03/19 00:58:27;;;;;;;0.20;0.20;;;;;;;12.87;74.35;101144.97;5110256;28;20030;-88
2023/03/19 01:00:54;;;;;;;0.03;0.03;;;;;;;12.85;73.82;101141.47;5102042;28;20039;-88
2023/03/19 01:03:20;;;;;;;0.10;0.10;;;;;;;12.78;74.03;101142.53;5109255;28;20027;-87
2023/03/19 01:05:48;;;;;;;0.38;0.38;;;;;;;12.71;74.12;101136.50;5099733;28;20024;-87
2023/03/19 01:08:15;;;;;;;0.32;0.32;;;;;;;12.66;74.10;101142.81;5106340;28;20468;-87
2023/03/19 01:10:42;;;;;;;0.10;0.10;;;;;;;12.61;73.91;101140.25;5109901;28;20020;-88
2023/03/19 01:13:08;;;;;;;0.10;0.10;;;;;;;12.52;74.51;101136.03;5109537;28;20434;-88
2023/03/19 01:15:42;;;;;;;0.03;0.03;;;;;;;12.49;74.82;101146.75;5115586;28;20023;-87
2023/03/19 01:18:10;;;;;;;0.50;0.50;;;;;;;12.41;74.27;101144.28;5114853;28;20075;-85
2023/03/19 01:20:39;;;;;;;0.15;0.15;;;;;;;12.43;74.66;101129.16;5111372;28;20023;-88
2023/03/19 01:23:06;;;;;;;0.03;0.03;;;;;;;12.41;74.50;101148.69;5112285;28;20126;-89
2023/03/19 01:25:33;;;;;;;0.10;0.10;;;;;;;12.39;74.39;101135.47;5102064;28;20023;-88
2023/03/19 01:27:59;;;;;;;0.10;0.10;;;;;;;12.40;74.69;101141.63;5103890;28;20440;-86
2023/03/19 01:30:25;;;;;;;0.25;0.25;;;;;;;12.39;74.65;101135.47;5105579;28;20107;-87
2023/03/19 01:32:52;;;;;;;0.20;0.20;;;;;;;12.43;74.48;101136.28;5105217;28;20028;-86
2023/03/19 01:35:18;;;;;;;0.20;0.20;;;;;;;12.43;74.44;101146.91;5116265;28;20038;-87
2023/03/19 01:37:44;;;;;;;1.02;0.95;;;;;;;12.37;74.09;101139.06;5108459;28;20019;-87
2023/03/19 01:40:13;;;;;;;0.00;0.00;;;;;;;12.39;74.23;101150.53;5111085;28;20502;-87
2023/03/19 01:43:11;;;;;;;0.10;0.10;;;;;;;12.44;74.12;101148.66;5108539;28;20027;-87
2023/03/19 01:45:41;;;;;;;0.75;0.68;;;;;;;12.39;74.67;101150.53;5108025;28;20125;-89
2023/03/19 01:48:18;;;;;;;0.15;0.15;;;;;;;12.37;74.37;101141.72;5114764;28;20020;-88
2023/03/19 01:50:46;;;;;;;0.03;0.03;;;;;;;12.26;74.51;101145.50;5111312;28;20028;-88
2023/03/19 01:53:16;;;;;;;0.10;0.10;;;;;;;12.24;73.96;101144.66;5100141;28;20034;-88
2023/03/19 01:55:44;;;;;;;0.10;0.10;;;;;;;12.11;74.65;101146.72;5110513;27;20035;-88
2023/03/19 01:58:10;;;;;;;0.15;0.15;;;;;;;12.09;74.01;101153.81;5109258;28;20028;-88
2023/03/19 02:00:38;;;;;;;0.10;0.10;;;;;;;12.04;73.69;101149.53;5112909;28;20023;-88
2023/03/19 02:03:05;;;;;;;0.10;0.10;;;;;;;11.98;73.73;101151.38;5111987;27;20039;-88
2023/03/19 02:05:35;;;;;;;0.10;0.10;;;;;;;11.94;73.77;101144.38;5110852;28;20036;-88
2023/03/19 02:08:06;;;;;;;0.65;0.55;;;;;;;11.91;74.19;101148.88;5112365;28;20031;-87
2023/03/19 02:10:33;;;;;;;0.10;0.10;;;;;;;11.86;73.12;101145.44;5100820;28;20027;-90
2023/03/19 02:12:59;;;;;;;0.10;0.10;;;;;;;11.81;73.34;101142.88;5104908;28;20395;-88
2023/03/19 02:15:26;;;;;;;0.10;0.10;;;;;;;11.76;73.68;101150.06;5114381;28;20015;-88
2023/03/19 02:17:53;;;;;;;0.20;0.20;;;;;;;11.79;73.64;101150.88;5112009;28;20028;-87
2023/03/19 02:20:43;;;;;;;0.10;0.10;;;;;;;11.82;73.37;101157.91;5113428;28;20061;-88
2023/03/19 02:23:34;;;;;;;0.57;0.57;;;;;;;11.76;73.67;101160.69;5110382;28;20036;-87
2023/03/19 02:26:06;;;;;;;0.20;0.20;;;;;;;11.74;74.23;101163.38;5109837;28;20039;-92
2023/03/19 02:28:35;;;;;;;0.10;0.10;;;;;;;11.79;73.91;101160.63;5109787;28;20031;-88
2023/03/19 02:31:02;;;;;;;1.50;0.80;;;;;;;11.83;74.44;101164.97;5105394;28;20034;-88
2023/03/19 02:33:43;;;;;;;0.30;0.30;;;;;;;11.92;74.04;101161.25;5101352;28;20039;-88
2023/03/19 02:36:19;;;;;;;0.10;0.10;;;;;;;11.95;73.85;101161.16;5112963;28;20031;-88
2023/03/19 02:38:50;;;;;;;0.13;0.13;;;;;;;11.95;73.59;101162.06;5099939;28;20049;-88
2023/03/19 02:42:10;;;;;;;0.10;0.10;;;;;;;12.02;74.04;101162.81;5108404;28;20023;-88
2023/03/19 02:44:18;;;;;;;0.30;0.30;;;;;;;11.95;74.65;101170.03;5099224;28;20043;-88
2023/03/19 02:46:50;;;;;;;0.10;0.10;;;;;;;11.97;74.47;101165.59;5113636;28;20282;-88
2023/03/19 02:49:27;;;;;;;0.90;0.90;;;;;;;11.97;74.14;101154.97;5112620;28;20070;-88
2023/03/19 02:51:53;;;;;;;3.65;1.00;;;;;;;11.89;74.52;101167.50;5104992;28;20043;-88
2023/03/19 02:54:34;;;;;;;0.10;0.10;;;;;;;11.90;74.20;101168.34;5107973;28;20055;-88
2023/03/19 02:57:16;;;;;;;0.30;0.30;;;;;;;11.80;74.42;101167.66;5110451;28;20037;-88
2023/03/19 02:59:48;;;;;;;0.10;0.10;;;;;;;11.81;73.80;101180.94;5095077;28;20065;-89
2023/03/19 03:02:32;;;;;;;0.10;0.10;;;;;;;11.76;74.15;101176.59;5091530;28;20036;-88
2023/03/19 03:05:23;;;;;;;0.15;0.15;;;;;;;11.74;74.08;101173.97;5098044;28;20482;-88
2023/03/19 03:07:52;;;;;;;0.10;0.10;;;;;;;11.56;73.84;101169.88;5096769;28;20398;-88
2023/03/19 03:10:35;;;;;;;4.00;0.55;;;;;;;11.50;73.54;101170.00;5093241;28;20079;-88
2023/03/19 03:13:26;;;;;;;0.15;0.15;;;;;;;11.52;73.37;101165.56;5091878;28;20485;-88
2023/03/19 03:16:24;;;;;;;0.20;0.20;;;;;;;11.43;73.32;101163.09;5092640;28;20118;-89
2023/03/19 03:19:00;;;;;;;0.10;0.10;;;;;;;11.36;73.52;101172.06;5089540;28;20406;-87
2023/03/19 03:22:17;;;;;;;0.10;0.10;;;;;;;11.42;73.23;101166.63;5093167;28;20035;-87
2023/03/19 03:28:56;;;;;;;1.02;1.02;;;;;;;11.38;73.54;101170.25;5002943;28;20038;-88
2023/03/19 03:31:47;;;;;;;0.70;0.70;;;;;;;11.38;73.13;101175.56;4993180;28;20041;-87
2023/03/19 03:34:36;;;;;;;0.10;0.10;;;;;;;11.37;73.40;101179.13;5109483;28;20115;-87
2023/03/19 03:37:16;;;;;;;0.52;0.52;;;;;;;11.36;73.30;101177.34;5092653;28;20504;-87
2023/03/19 03:40:07;;;;;;;0.10;0.10;;;;;;;11.38;73.95;101176.44;5091745;28;20034;-87
2023/03/19 03:42:45;;;;;;;0.25;0.25;;;;;;;11.34;73.62;101180.03;5096173;28;20032;-88
2023/03/19 03:45:14;;;;;;;0.38;0.38;;;;;;;11.28;73.64;101175.72;5085995;28;20367;-88
2023/03/19 03:48:09;;;;;;;1.55;0.85;;;;;;;11.34;73.94;101177.41;5094525;28;20028;-88
2023/03/19 03:51:05;;;;;;;0.10;0.10;;;;;;;11.31;73.67;101169.47;5100431;28;20152;-88
2023/03/19 03:54:29;;;;;;;0.65;0.65;;;;;;;11.33;73.75;101160.59;5111899;28;20060;-88
2023/03/19 03:57:26;;;;;;;0.25;0.25;;;;;;;11.31;73.61;101157.09;5079331;28;20115;-88
2023/03/19 04:01:24;;;;;;;0.10;0.10;;;;;;;11.27;73.98;101165.13;5107406;28;21163;-89
2023/03/19 04:02:59;;;;;;;0.10;0.10;;;;;;;11.22;74.07;101169.66;5088061;28;20083;-91
2023/03/19 04:05:47;;;;;;;0.10;0.10;;;;;;;11.28;74.04;101174.84;5113754;28;20083;-89
2023/03/19 04:08:44;;;;;;;0.10;0.10;;;;;;;11.25;73.77;101159.88;5117471;28;20031;-90
2023/03/19 04:11:37;;;;;;;0.55;0.55;;;;;;;11.31;73.80;101165.06;5116746;28;20029;-89
2023/03/19 04:14:17;;;;;;;1.35;0.45;;;;;;;11.23;74.02;101169.63;5114233;28;20121;-88
2023/03/19 04:16:43;;;;;;;0.35;0.35;;;;;;;11.13;73.77;101176.00;5118520;28;20027;-89
2023/03/19 04:19:15;;;;;;;7.10;2.15;;;;;;;11.12;73.54;101184.84;5120051;28;20012;-88
2023/03/19 04:21:41;;;;;;;0.63;0.63;;;;;;;11.06;73.89;101184.94;5117818;28;20024;-89
2023/03/19 04:24:13;;;;;;;0.28;0.28;;;;;;;11.06;73.57;101187.59;5115998;28;20050;-88
2023/03/19 04:26:39;;;;;;;1.35;0.65;;;;;;;11.01;74.13;101182.34;5108277;28;20039;-88
2023/03/19 04:29:11;;;;;;;1.98;1.20;;;;;;;11.13;73.76;101179.50;5100265;28;20038;-88
2023/03/19 04:34:40;;;;;;;0.20;0.20;;;;;;;11.06;73.90;101184.94;5069441;28;20066;-90
2023/03/19 04:37:09;;;;;;;0.80;0.80;;;;;;;11.08;73.12;101183.13;5113316;28;20789;-89
2023/03/19 04:39:38;;;;;;;0.10;0.10;;;;;;;10.98;73.74;101183.28;5117496;28;20053;-87
2023/03/19 04:42:05;;;;;;;0.43;0.43;;;;;;;11.04;73.83;101197.34;5099151;28;20085;-88
2023/03/19 04:44:32;;;;;;;0.30;0.30;;;;;;;11.07;73.49;101186.69;5097609;28;20024;-88
2023/03/19 04:47:03;;;;;;;0.10;0.10;;;;;;;10.99;73.50;101205.34;5087257;28;20020;-87
2023/03/19 04:49:35;;;;;;;0.10;0.10;;;;;;;10.93;73.98;101208.09;5096192;28;20404;-87
2023/03/19 04:52:11;;;;;;;0.20;0.20;;;;;;;11.03;73.70;101209.72;5096242;28;20020;-87
2023/03/19 04:54:50;;;;;;;0.50;0.50;;;;;;;10.92;74.20;101209.91;5098114;28;20027;-87
2023/03/19 04:57:23;;;;;;;0.10;0.10;;;;;;;10.97;73.64;101209.84;5095954;28;20032;-87
2023/03/19 04:59:52;;;;;;;1.85;1.75;;;;;;;10.98;73.35;101220.41;5096783;28;20085;-87
2023/03/19 05:02:22;;;;;;;0.10;0.10;;;;;;;10.96;73.71;101231.94;5097594;28;20478;-87
2023/03/19 05:04:53;;;;;;;0.90;0.90;;;;;;;10.93;73.44;101235.50;5096968;28;20493;-87
2023/03/19 05:07:21;;;;;;;0.30;0.30;;;;;;;10.86;73.86;101235.63;5096848;28;20133;-88
2023/03/19 05:09:50;;;;;;;0.22;0.22;;;;;;;10.93;73.34;101224.00;5096147;28;20066;-88
2023/03/19 05:12:16;;;;;;;0.28;0.28;;;;;;;10.89;73.60;101224.97;5090639;28;20028;-88
2023/03/19 05:14:42;;;;;;;0.85;0.85;;;;;;;10.95;73.74;101231.06;5094595;28;20032;-88
2023/03/19 05:17:14;;;;;;;0.70;0.70;;;;;;;10.99;73.45;101227.47;5095058;28;20085;-87
2023/03/19 05:19:40;;;;;;;1.10;1.08;;;;;;;10.98;73.20;101230.16;5098170;28;20034;-88
2023/03/19 05:22:06;;;;;;;3.42;0.65;;;;;;;11.03;73.15;101227.41;5094622;28;20028;-88
2023/03/19 05:24:32;;;;;;;0.10;0.10;;;;;;;11.00;73.06;101228.31;5097156;28;20036;-87
2023/03/19 05:26:58;;;;;;;0.85;0.73;;;;;;;10.97;73.24;101239.00;5091229;28;20036;-88
2023/03/19 05:29:25;;;;;;;1.40;1.33;;;;;;;10.95;73.15;101230.19;5094344;28;20031;-88
2023/03/19 05:31:58;;;;;;;0.57;0.57;;;;;;;10.95;73.20;101241.69;5096335;28;20509;-88
2023/03/19 05:34:24;;;;;;;2.47;0.95;;;;;;;10.96;73.13;101243.41;5089196;28;20036;-87
2023/03/19 05:36:50;;;;;;;1.40;1.05;;;;;;;10.94;73.36;101236.38;5093566;28;20130;-87
2023/03/19 05:39:16;;;;;;;0.15;0.15;;;;;;;10.93;73.33;101238.16;5093044;28;20031;-87
2023/03/19 05:41:42;;;;;;;1.10;1.08;;;;;;;10.96;73.40;101248.72;5094422;28;20055;-87
2023/03/19 05:44:09;;;;;;;0.55;0.55;;;;;;;10.90;73.14;101247.94;5091449;28;20020;-87
2023/03/19 05:46:41;;;;;;;0.73;0.73;;;;;;;10.89;73.60;101257.69;5090601;28;20040;-87
2023/03/19 05:49:07;;;;;;;0.68;0.68;;;;;;;10.86;73.58;101263.00;5091562;28;20104;-87
2023/03/19 05:51:33;;;;;;;0.10;0.10;;;;;;;10.83;73.35;101265.72;5110381;28;20028;-88
2023/03/19 05:53:59;;;;;;;0.10;0.10;;;;;;;10.81;73.44;101270.16;5108120;28;20394;-87
2023/03/19 05:56:28;;;;;;;0.68;0.35;;;;;;;10.75;73.68;101271.09;5108171;28;20410;-89
2023/03/19 05:58:55;;;;;;;0.57;0.57;;;;;;;10.76;73.43;101272.84;5104630;28;20028;-87
2023/03/19 06:01:25;;;;;;;1.33;1.23;;;;;;;10.73;73.82;101280.88;5094191;28;20039;-87
2023/03/19 06:03:51;;;;;;;0.90;0.90;;;;;;;10.70;73.97;101286.19;5088127;28;20050;-87
2023/03/19 06:06:17;;;;;;;1.13;1.02;;;;;;;10.67;74.18;101284.47;5095032;28;20023;-87
2023/03/19 06:08:43;;;;;;;0.22;0.22;;;;;;;10.63;74.32;101280.09;5093826;28;20043;-87
2023/03/19 06:11:10;;;;;;;0.10;0.10;;;;;;;10.72;73.83;101286.19;5094195;28;20016;-87
2023/03/19 06:13:36;;;;;;;1.25;1.25;;;;;;;10.63;74.40;101282.75;5094741;28;20259;-87
2023/03/19 06:16:02;;;;;;;0.77;0.77;;;;;;;10.65;74.37;101282.72;5091122;28;20093;-89
2023/03/19 06:18:28;;;;;;;0.20;0.20;;;;;;;10.71;74.11;101276.50;5096998;28;20146;-87
2023/03/19 06:20:54;;;;;;;0.10;0.10;;;;;;;10.63;74.92;101288.06;5092427;28;20024;-86
2023/03/19 06:23:20;;;;;;;0.30;0.30;;;;;;;10.70;74.49;101285.31;5094192;28;20040;-86
2023/03/19 06:25:47;;;;;;;0.63;0.40;;;;;;;10.74;74.26;101279.06;5095312;28;20097;-88
2023/03/19 06:28:13;;;;;;;0.35;0.35;;;;;;;10.78;74.37;101286.09;5092482;28;20077;-87
2023/03/19 06:30:39;;;;;;;0.35;0.35;;;;;;;10.81;74.21;101292.22;5095109;28;20028;-86
2023/03/19 06:33:05;;;;;;;0.20;0.20;;;;;;;10.80;74.41;101301.09;5089585;28;20021;-87
2023/03/19 06:35:32;;;;;;;0.10;0.10;;;;;;;10.85;73.97;101298.34;5086824;28;20040;-87
2023/03/19 06:37:58;;;;;;;0.10;0.10;;;;;;;10.80;74.08;101313.44;5086988;28;20037;-87
2023/03/19 06:40:24;;;;;;;0.70;0.70;;;;;;;10.83;73.64;101301.03;5084291;28;20052;-86
2023/03/19 06:42:51;;;;;;;0.38;0.38;;;;;;;10.84;73.85;101312.50;5096817;28;20444;-87
2023/03/19 06:45:19;;;;;;;1.50;1.40;;;;;;;10.86;73.89;101317.81;5092041;28;20032;-87
2023/03/19 06:47:46;;;;;;;0.40;0.40;;;;;;;10.90;73.86;101322.16;5091355;28;20494;-87
2023/03/19 06:50:15;;;;;;;0.20;0.20;;;;;;;10.88;73.76;101335.44;5089938;28;20047;-87
2023/03/19 06:52:41;;;;;;;0.10;0.10;;;;;;;10.83;74.23;101337.28;5096350;28;20386;-88
2023/03/19 06:55:08;;;;;;;0.28;0.28;;;;;;;10.85;73.74;101340.78;5089967;28;20042;-87
2023/03/19 06:57:35;;;;;;;0.10;0.10;;;;;;;10.84;73.75;101345.22;5095790;28;20116;-87
2023/03/19 07:00:03;;;;;;;0.10;0.10;;;;;;;10.84;74.04;101344.31;5095457;28;20024;-87
2023/03/19 07:02:30;;;;;;;0.13;0.13;;;;;;;10.90;74.36;101344.22;5098930;28;20032;-87
2023/03/19 07:05:02;;;;;;;3.72;0.85;;;;;;;10.89;74.46;101341.63;5094711;28;20087;-87
2023/03/19 07:07:31;;;;;;;1.50;1.40;;;;;;;10.92;74.12;101345.09;5090406;28;20211;-87
2023/03/19 07:09:57;;;;;;;0.15;0.15;;;;;;;10.92;74.27;101353.06;5093524;28;20024;-86
2023/03/19 07:12:26;;;;;;;0.22;0.22;;;;;;;10.97;74.37;101353.00;5089426;28;20036;-87
2023/03/19 07:14:54;;;;;;;0.20;0.20;;;;;;;11.02;74.21;101359.13;5093856;28;20058;-86
2023/03/19 07:17:21;;;;;;;0.20;0.20;;;;;;;11.11;74.02;101352.81;5091027;28;20020;-87
2023/03/19 07:19:48;;;;;;;0.40;0.40;;;;;;;11.11;74.00;101356.31;5093102;28;20024;-87
2023/03/19 07:22:14;;;;;;;0.10;0.10;;;;;;;11.21;74.55;101348.25;5092619;28;20035;-87
2023/03/19 07:24:40;;;;;;;0.82;0.82;;;;;;;11.27;74.14;101354.34;5095458;28;20028;-88
2023/03/19 07:27:06;;;;;;;0.75;0.75;;;;;;;11.29;74.23;101357.84;5104208;28;20031;-87
2023/03/19 07:29:32;;;;;;;0.32;0.32;;;;;;;11.33;73.83;101359.53;5105806;28;20019;-90
2023/03/19 07:31:59;;;;;;;1.63;1.33;;;;;;;11.34;74.06;101360.44;5090517;28;20024;-87
2023/03/19 07:34:25;;;;;;;0.45;0.45;;;;;;;11.40;73.54;101370.97;5098127;28;20074;-88
2023/03/19 07:36:51;;;;;;;1.48;1.48;;;;;;;11.42;73.64;101368.28;5096512;28;20042;-87
2023/03/19 07:39:18;;;;;;;0.10;0.10;;;;;;;11.43;73.92;101372.69;5098855;28;20024;-86
2023/03/19 07:41:47;;;;;;;0.40;0.40;;;;;;;11.42;74.05;101365.63;5097775;28;20028;-86
2023/03/19 07:44:14;;;;;;;0.22;0.22;;;;;;;11.40;73.92;101370.06;5097747;28;20081;-86
2023/03/19 07:46:41;;;;;;;0.35;0.35;;;;;;;11.48;73.59;101369.06;5096455;28;20032;-86
2023/03/19 07:49:07;;;;;;;0.10;0.10;;;;;;;11.51;73.67;101376.09;5096887;28;20032;-88
2023/03/19 07:51:34;;;;;;;1.75;1.65;;;;;;;11.54;73.56;101378.72;5089485;28;20108;-87
2023/03/19 07:54:00;;;;;;;1.15;0.90;;;;;;;11.55;73.69;101384.88;5103115;28;20474;-86
2023/03/19 07:56:26;;;;;;;2.58;1.83;;;;;;;11.56;73.64;101376.88;5094835;28;20032;-86
2023/03/19 07:58:52;;;;;;;0.20;0.20;;;;;;;11.61;73.38;101384.78;5089165;28;21145;-86
2023/03/19 08:01:19;;;;;;;1.40;1.30;;;;;;;11.63;73.30;101391.81;5095617;28;20035;-87
2023/03/19 08:03:47;;;;;;;0.35;0.35;;;;;;;11.63;72.96;101394.47;5096170;28;20049;-87
2023/03/19 08:06:13;;;;;;;0.52;0.52;;;;;;;11.61;73.56;101400.72;5095288;28;20047;-87
2023/03/19 08:08:39;;;;;;;1.20;0.88;;;;;;;11.63;73.38;101401.56;5090170;28;20020;-87
2023/03/19 08:11:06;;;;;;;2.50;0.68;;;;;;;11.60;73.12;101399.84;5096135;28;20077;-87
2023/03/19 08:13:32;;;;;;;0.08;0.08;;;;;;;11.67;73.05;101399.75;5096275;28;20455;-87
2023/03/19 08:15:58;;;;;;;1.45;0.95;;;;;;;11.69;73.26;101403.25;5093342;28;20035;-87
2023/03/19 08:18:25;;;;;;;1.45;1.35;;;;;;;11.76;73.29;101404.91;5104338;28;20409;-88
2023/03/19 08:20:51;;;;;;;0.35;0.35;;;;;;;11.78;73.12;101409.28;5093293;28;20031;-87
2023/03/19 08:23:18;;;;;;;0.20;0.20;;;;;;;11.82;73.04;101416.31;5103771;28;20104;-87
2023/03/19 08:25:44;;;;;;;7.20;0.82;;;;;;;11.84;72.89;101424.25;5095345;28;20054;-86
2023/03/19 08:28:10;;;;;;;2.13;0.93;;;;;;;11.88;72.62;101423.28;5096366;28;20104;-86
2023/03/19 08:30:37;;;;;;;0.60;0.60;;;;;;;11.91;72.56;101425.91;5094915;28;20031;-88
2023/03/19 08:33:03;;;;;;;3.10;0.90;;;;;;;11.97;72.65;101420.53;5097737;28;20028;-87
2023/03/19 08:35:29;;;;;;;0.68;0.68;;;;;;;12.00;72.82;101416.06;5102456;28;20168;-86
2023/03/19 08:37:55;;;;;;;0.63;0.63;;;;;;;11.96;72.62;101424.09;5095372;28;20055;-87
2023/03/19 08:40:22;;;;;;;1.45;0.88;;;;;;;12.01;72.47;101429.31;5095801;28;20339;-86
2023/03/19 08:42:49;;;;;;;1.35;1.35;;;;;;;11.94;71.91;101431.16;5098773;28;20032;-88
2023/03/19 08:45:15;;;;;;;0.90;0.90;;;;;;;12.02;72.39;101438.16;5098005;28;20028;-89
2023/03/19 08:47:42;;;;;;;0.80;0.80;;;;;;;12.02;72.01;101438.16;5099147;28;20044;-85
2023/03/19 08:50:09;;;;;;;0.10;0.10;;;;;;;12.05;72.31;101444.31;5095271;28;20056;-87
2023/03/19 08:52:38;;;;;;;0.30;0.30;;;;;;;12.07;72.06;101441.63;5094590;28;20020;-87
2023/03/19 08:55:04;;;;;;;3.92;1.45;;;;;;;12.11;72.31;101443.31;5090050;28;20032;-87
2023/03/19 08:57:32;;;;;;;0.20;0.20;;;;;;;12.15;71.85;101442.38;5094471;28;20047;-88
2023/03/19 08:59:58;;;;;;;0.10;0.10;;;;;;;12.09;71.59;101446.00;5092154;28;20028;-87
2023/03/19 09:02:24;;;;;;;1.08;1.08;;;;;;;12.23;71.49;101447.56;5092154;28;20115;-87
2023/03/19 09:04:50;;;;;;;0.77;0.77;;;;;;;12.28;71.88;101448.34;5099361;28;20054;-84
2023/03/19 09:07:16;;;;;;;0.30;0.30;;;;;;;12.28;71.76;101446.56;5094585;28;20062;-88
2023/03/19 09:09:54;;;;;;;0.10;0.10;;;;;;;12.35;71.40;101449.09;5094179;28;20096;-89
2023/03/19 09:12:35;;;;;;;7.50;1.08;;;;;;;12.40;71.70;101449.91;5101077;28;20106;-90
2023/03/19 09:15:02;;;;;;;0.10;0.10;;;;;;;12.39;70.92;101458.81;5095597;28;20046;-83
2023/03/19 09:17:28;;;;;;;0.22;0.22;;;;;;;12.34;70.82;101463.31;5092539;28;20020;-87
2023/03/19 09:19:54;;;;;;;0.30;0.30;;;;;;;12.36;70.54;101462.38;5093451;28;20111;-86
2023/03/19 09:22:20;;;;;;;0.10;0.10;;;;;;;12.46;71.63;101453.34;5097867;28;20027;-88
2023/03/19 09:24:46;;;;;;;8.52;2.25;;;;;;;12.50;71.39;101450.59;5087402;28;20068;-86
2023/03/19 09:27:12;;;;;;;0.73;0.73;;;;;;;12.52;70.54;101460.31;5092752;28;20550;-86
2023/03/19 09:29:38;;;;;;;0.10;0.10;;;;;;;12.58;71.05;101465.50;5096017;28;20569;-85
2023/03/19 09:32:05;;;;;;;1.85;1.75;;;;;;;12.55;69.91;101467.38;5097018;28;20024;-86
2023/03/19 09:34:31;;;;;;;0.70;0.70;;;;;;;12.61;70.19;101465.47;5094876;28;20032;-88
2023/03/19 09:36:57;;;;;;;0.40;0.40;;;;;;;12.68;70.94;101465.34;5096383;28;20027;-84
2023/03/19 09:39:23;;;;;;;0.10;0.10;;;;;;;12.68;70.00;101468.88;5093702;28;20032;-84
2023/03/19 09:42:12;;;;;;;1.30;1.30;;;;;;;12.78;69.71;101480.22;5093935;28;20036;-84
2023/03/19 09:44:43;;;;;;;1.05;0.82;;;;;;;12.75;69.18;101483.81;5089039;28;20024;-87
2023/03/19 09:47:24;;;;;;;0.30;0.30;;;;;;;12.81;69.11;101482.84;5093096;28;20046;-83
2023/03/19 09:49:52;;;;;;;0.32;0.32;;;;;;;12.86;69.81;101490.72;5094654;28;20040;-86
2023/03/19 09:52:44;;;;;;;1.00;1.00;;;;;;;12.95;69.08;101491.41;5092056;28;20024;-86
2023/03/19 09:55:38;;;;;;;0.10;0.10;;;;;;;13.00;69.17;101494.00;5082760;28;20036;-86
2023/03/19 09:58:13;;;;;;;1.55;1.17;;;;;;;12.98;69.22;101506.44;5094184;28;20123;-85
2023/03/19 10:00:41;;;;;;;0.50;0.50;;;;;;;12.93;68.91;101513.63;5096172;28;20020;-86
2023/03/19 10:03:34;;;;;;;2.08;1.90;;;;;;;13.00;68.78;101519.72;5101418;28;20032;-87
2023/03/19 10:06:21;;;;;;;0.90;0.90;;;;;;;12.99;69.17;101515.31;5103594;28;20367;-88
2023/03/19 10:09:27;;;;;;;1.63;1.63;;;;;;;12.94;68.83;101520.72;5101132;28;20387;-87
2023/03/19 10:12:23;;;;;;;0.22;0.22;;;;;;;12.88;68.87;101527.00;5100998;28;20110;-85
2023/03/19 10:15:18;;;;;;;0.77;0.77;;;;;;;12.88;68.63;101526.13;5103674;28;20078;-87
2023/03/19 10:18:09;;;;;;;0.20;0.20;;;;;;;12.81;68.31;101527.16;5098505;28;20032;-86
2023/03/19 10:20:58;;;;;;;1.27;1.23;;;;;;;12.86;68.83;101530.59;5092996;28;20069;-86
2023/03/19 10:23:47;;;;;;;0.20;0.20;;;;;;;12.81;68.59;101527.16;5103180;28;20084;-86
2023/03/19 10:26:16;;;;;;;0.55;0.55;;;;;;;12.82;69.28;101529.78;5097918;28;20020;-87
2023/03/19 10:28:50;;;;;;;0.17;0.17;;;;;;;12.84;69.37;101541.28;5093555;28;20032;-87
2023/03/19 10:36:41;;;;;;;0.43;0.43;;;;;;;12.78;69.24;101546.69;5116151;27;20911;-82
2023/03/19 10:39:08;;;;;;;1.48;1.38;;;;;;;12.80;69.52;101544.91;5117545;28;20091;-82
2023/03/19 10:44:28;;;;;;;1.85;1.45;;;;;;;12.88;69.17;101548.28;5119218;27;20331;-82
2023/03/19 10:46:58;;;;;;;;;;;;;;;13.00;68.18;101549.00;5108649;28;20035;-81
2023/03/19 10:49:25;;;;;;;0.10;0.10;;;;;;;12.91;68.47;101556.22;5096891;28;19924;-81
2023/03/19 10:51:51;;;;;;;1.85;1.75;;;;;;;12.97;68.75;101557.88;5110618;28;20028;-81
2023/03/19 10:54:22;;;;;;;2.60;2.45;;;;;;;12.98;68.34;101558.78;5123074;28;20031;-81
2023/03/19 10:56:49;;;;;;;0.68;0.68;;;;;;;12.99;68.81;101560.53;5094427;28;20020;-82
2023/03/19 10:59:25;;;;;;;0.32;0.32;;;;;;;13.03;68.44;101552.44;5121281;28;20031;-80
2023/03/19 11:02:14;;;;;;;0.73;0.68;;;;;;;13.05;68.39;101560.41;5102784;28;20029;-81
2023/03/19 11:04:40;;;;;;;0.50;0.50;;;;;;;13.06;68.21;101556.81;5102908;28;20447;-80
2023/03/19 11:07:12;;;;;;;0.52;0.52;;;;;;;13.07;68.19;101563.91;5103786;28;20377;-81
2023/03/19 11:09:43;;;;;;;0.70;0.70;;;;;;;13.09;68.54;101562.09;5115346;28;20024;-83
2023/03/19 11:12:32;;;;;;;0.38;0.38;;;;;;;13.17;68.21;101557.53;5112975;28;20324;-80
2023/03/19 11:15:02;;;;;;;1.10;1.10;;;;;;;13.20;68.73;101556.59;5102184;28;20039;-81
2023/03/19 11:17:54;;;;;;;0.32;0.32;;;;;;;13.28;68.09;101557.28;5095559;28;20032;-83
2023/03/19 11:20:32;;;;;;;0.50;0.50;;;;;;;13.31;68.52;101557.25;5096762;28;20403;-83
2023/03/19 11:23:02;;;;;;;0.90;0.90;;;;;;;13.31;68.32;101561.66;5101530;28;20029;-82
2023/03/19 11:25:34;;;;;;;3.10;2.42;;;;;;;13.32;67.87;101568.75;5094144;28;20028;-82
2023/03/19 11:28:05;;;;;;;1.13;1.13;;;;;;;13.39;68.00;101559.78;5096047;28;20043;-82
2023/03/19 11:42:09;;;;;;;1.55;1.17;;;;;;;13.68;67.71;101552.97;5088097;27;20783;-80
2023/03/19 11:48:09;;;;;;;0.40;0.40;;;;;;;14.01;67.54;101558.47;5060582;28;20408;-83
2023/03/19 11:50:48;;;;;;;0.13;0.13;;;;;;;14.28;67.11;101554.28;5028430;28;20075;-83
2023/03/19 11:53:52;;;;;;;1.10;1.05;;;;;;;14.52;65.51;101562.59;5033107;28;20049;-85
2023/03/19 11:56:31;;;;;;;0.25;0.25;;;;;;;14.65;65.75;101560.50;5019085;28;20029;-85
2023/03/19 11:59:26;;;;;;;1.00;1.00;;;;;;;14.80;66.08;101560.09;5015732;28;20058;-85
2023/03/19 12:08:12;;;;;;;0.45;0.45;;;;;;;15.04;63.38;101561.25;5080822;27;20385;-85
2023/03/19 12:11:18;;;;;;;1.10;1.10;;;;;;;15.17;64.72;101567.13;5059301;28;20516;-84
2023/03/19 12:17:05;;;;;;;0.82;0.82;;;;;;;15.12;62.77;101571.72;5102881;27;1235125;-83
2023/03/19 12:22:52;;;;;;;0.95;0.95;;;;;;;15.19;63.00;101562.63;5143095;27;20379;-85
2023/03/19 12:25:45;;;;;;;2.13;1.23;;;;;;;15.29;63.82;101565.00;5134930;27;20028;-85
2023/03/19 12:36:25;;;;;;;0.15;0.15;;;;;;;15.41;59.94;101567.34;5096578;27;20376;-84
2023/03/19 12:39:14;;;;;;;1.58;1.50;;;;;;;15.60;60.98;101564.13;5100574;28;20028;-85